Time;durP1;ratioP1;P1;durP2;ratioP2;P2;SDS_P1;SDS_P2;PMS_P1;PMS_P2;Temp;Humidity;BMP_temperature;BMP_pressure;BME280_temperature;BME280_humidity;BME280_pressure;Samples;Min_cycle;Max_cycle;Signal;HPM_P1;HPM_P2
2023/06/04 00:03:58;;;;;;;;;;;9.30;99.90;;;;;;8326800;28;19999;-79
2023/06/04 00:07:59;;;;;;;;;;;9.40;99.90;;;;;;8335218;28;20330;-80
2023/06/04 00:12:00;;;;;;;;;;;9.30;99.90;;;;;;8347702;28;19947;-79
2023/06/04 00:16:00;;;;;;;;;;;9.50;99.90;;;;;;8326460;28;19988;-80
2023/06/04 00:20:01;;;;;;;;;;;9.60;99.90;;;;;;8328096;28;19913;-79
2023/06/04 00:24:01;;;;;;;;;;;9.60;99.90;;;;;;8351325;28;19920;-78
2023/06/04 00:28:02;;;;;;;;;;;9.70;99.90;;;;;;8332366;28;19959;-79
2023/06/04 00:32:03;;;;;;;;;;;9.60;99.90;;;;;;8325238;28;20327;-79
2023/06/04 00:36:03;;;;;;;;;;;9.70;99.90;;;;;;8342309;28;19955;-79
2023/06/04 00:40:05;;;;;;;;;;;9.50;99.90;;;;;;8349322;28;19968;-80
2023/06/04 00:44:06;;;;;;;;;;;9.30;99.90;;;;;;8323389;28;19912;-79
2023/06/04 00:48:06;;;;;;;;;;;9.00;99.90;;;;;;8323726;28;20321;-79
2023/06/04 00:52:10;;;;;;;;;;;8.80;99.90;;;;;;8347269;28;19919;-79
2023/06/04 00:56:11;;;;;;;;;;;8.80;99.90;;;;;;8348437;28;19909;-79
2023/06/04 01:00:12;;;;;;;;;;;8.80;99.90;;;;;;8325743;28;19999;-80
2023/06/04 01:04:16;;;;;;;;;;;8.60;99.90;;;;;;8347939;28;19920;-79
2023/06/04 01:08:18;;;;;;;;;;;8.50;99.90;;;;;;8337088;28;19917;-79
2023/06/04 01:12:18;;;;;;;;;;;8.50;99.90;;;;;;8343510;28;19958;-78
2023/06/04 01:16:19;;;;;;;;;;;8.50;99.90;;;;;;8324731;28;19940;-81
2023/06/04 01:20:32;;;;;;;;;;;8.90;99.90;;;;;;8347091;28;19913;-78
2023/06/04 01:24:36;;;;;;;;;;;9.10;99.90;;;;;;8358481;28;19916;-79
2023/06/04 01:28:37;;;;;;;;;;;9.10;99.90;;;;;;8350053;28;20304;-78
2023/06/04 01:32:37;;;;;;;;;;;8.50;99.90;;;;;;8333693;28;19996;-80
2023/06/04 01:36:38;;;;;;;;;;;8.20;99.90;;;;;;8320296;28;19923;-79
2023/06/04 01:40:38;;;;;;;;;;;8.00;99.90;;;;;;8338711;28;19973;-79
2023/06/04 01:44:39;;;;;;;;;;;8.00;99.90;;;;;;8335976;28;19959;-79
2023/06/04 01:48:40;;;;;;;;;;;7.90;99.90;;;;;;8355754;28;19908;-79
2023/06/04 01:52:41;;;;;;;;;;;7.70;99.90;;;;;;8355191;28;20317;-78
2023/06/04 01:56:41;;;;;;;;;;;7.50;99.90;;;;;;8332893;28;19909;-78
2023/06/04 02:00:42;;;;;;;;;;;7.40;99.90;;;;;;8323969;28;19924;-78
2023/06/04 02:04:44;;;;;;;;;;;7.40;99.90;;;;;;8344804;28;19932;-78
2023/06/04 02:08:45;;;;;;;;;;;7.40;99.90;;;;;;8327293;28;19917;-79
2023/06/04 02:12:59;;;;;;;;;;;7.30;99.90;;;;;;8333149;28;19925;-78
2023/06/04 02:16:59;;;;;;;;;;;7.20;99.90;;;;;;8329134;28;20023;-79
2023/06/04 02:21:00;;;;;;;;;;;7.20;99.90;;;;;;8332490;28;19913;-79
2023/06/04 02:25:00;;;;;;;;;;;7.30;99.90;;;;;;8332711;28;19917;-78
2023/06/04 02:29:01;;;;;;;;;;;7.40;99.90;;;;;;8336100;28;19921;-79
2023/06/04 02:33:03;;;;;;;;;;;7.30;99.90;;;;;;8345694;28;19909;-80
2023/06/04 02:37:04;;;;;;;;;;;7.30;99.90;;;;;;8340791;28;19968;-79
2023/06/04 02:41:04;;;;;;;;;;;7.20;99.90;;;;;;8328858;28;20492;-79
2023/06/04 02:45:05;;;;;;;;;;;7.30;99.90;;;;;;8322198;28;19928;-79
2023/06/04 02:49:06;;;;;;;;;;;7.00;99.90;;;;;;8321687;28;19909;-79
2023/06/04 02:53:06;;;;;;;;;;;7.00;99.90;;;;;;8320237;28;19917;-77
2023/06/04 02:57:08;;;;;;;;;;;7.10;99.90;;;;;;8318876;28;19913;-78
2023/06/04 03:01:16;;;;;;;;;;;7.40;99.90;;;;;;8326564;28;19913;-78
2023/06/04 03:05:17;;;;;;;;;;;7.60;99.90;;;;;;8330491;28;19917;-80
2023/06/04 03:09:18;;;;;;;;;;;7.40;99.90;;;;;;8352130;28;20542;-78
2023/06/04 03:13:18;;;;;;;;;;;7.00;99.90;;;;;;8324012;28;19913;-78
2023/06/04 03:17:18;;;;;;;;;;;6.90;99.90;;;;;;8322617;28;19917;-78
2023/06/04 03:21:19;;;;;;;;;;;7.00;99.90;;;;;;8321347;28;19970;-78
2023/06/04 03:25:19;;;;;;;;;;;7.00;99.90;;;;;;8338013;28;19931;-79
2023/06/04 03:29:21;;;;;;;;;;;6.90;99.90;;;;;;8329769;28;19963;-80
2023/06/04 03:33:21;;;;;;;;;;;6.70;99.90;;;;;;8353585;28;19909;-78
2023/06/04 03:37:21;;;;;;;;;;;6.60;99.90;;;;;;8319147;28;20369;-79
2023/06/04 03:41:22;;;;;;;;;;;6.70;99.90;;;;;;8313868;28;20024;-79
2023/06/04 03:45:22;;;;;;;;;;;6.60;99.90;;;;;;8320147;28;20000;-78
2023/06/04 03:49:23;;;;;;;;;;;6.60;99.90;;;;;;8332615;28;19909;-78
2023/06/04 03:53:23;;;;;;;;;;;6.80;99.90;;;;;;8330676;28;19909;-79
2023/06/04 03:57:24;;;;;;;;;;;7.20;99.90;;;;;;8316987;28;20299;-79
2023/06/04 04:01:25;;;;;;;;;;;7.80;99.90;;;;;;8321803;28;19919;-80
2023/06/04 04:05:25;;;;;;;;;;;8.00;99.90;;;;;;8339664;28;19913;-79
2023/06/04 04:09:26;;;;;;;;;;;8.40;99.90;;;;;;8327109;28;20530;-80
2023/06/04 04:13:26;;;;;;;;;;;8.90;99.90;;;;;;8337282;28;20192;-79
2023/06/04 04:17:27;;;;;;;;;;;9.40;99.90;;;;;;8346312;28;19952;-80
2023/06/04 04:21:27;;;;;;;;;;;10.20;99.90;;;;;;8339103;28;19960;-80
2023/06/04 04:25:28;;;;;;;;;;;10.90;99.90;;;;;;8325055;28;19982;-80
2023/06/04 04:29:32;;;;;;;;;;;11.30;99.90;;;;;;8329855;28;20566;-79
2023/06/04 04:33:36;;;;;;;;;;;11.80;99.90;;;;;;8348194;28;19943;-80
2023/06/04 04:37:38;;;;;;;;;;;12.50;99.90;;;;;;8343632;28;19909;-81
2023/06/04 04:41:39;;;;;;;;;;;13.10;99.90;;;;;;8328702;28;19960;-81
2023/06/04 04:45:39;;;;;;;;;;;13.50;99.90;;;;;;8328122;28;19990;-80
2023/06/04 04:49:40;;;;;;;;;;;14.00;99.90;;;;;;8364063;28;20012;-80
2023/06/04 04:53:40;;;;;;;;;;;14.40;99.90;;;;;;8325956;28;20437;-80
2023/06/04 04:57:40;;;;;;;;;;;14.70;99.90;;;;;;8319711;28;19941;-79
2023/06/04 05:01:41;;;;;;;;;;;15.40;99.90;;;;;;8339381;28;19916;-80
2023/06/04 05:05:42;;;;;;;;;;;15.40;99.90;;;;;;8326008;28;19916;-79
2023/06/04 05:09:42;;;;;;;;;;;15.50;99.90;;;;;;8322001;28;19917;-80
2023/06/04 05:13:43;;;;;;;;;;;15.70;99.90;;;;;;8334536;28;19927;-81
2023/06/04 05:17:43;;;;;;;;;;;16.40;99.90;;;;;;8315490;28;20411;-81
2023/06/04 05:21:44;;;;;;;;;;;16.70;99.90;;;;;;8328243;28;19962;-80
2023/06/04 05:25:44;;;;;;;;;;;17.70;99.90;;;;;;8328034;28;20015;-80
2023/06/04 05:29:45;;;;;;;;;;;18.30;99.90;;;;;;8332829;28;19916;-80
2023/06/04 05:33:47;;;;;;;;;;;17.90;99.90;;;;;;8341317;28;19913;-80
2023/06/04 05:37:53;;;;;;;;;;;18.20;99.90;;;;;;8333846;28;19951;-81
2023/06/04 05:41:53;;;;;;;;;;;19.00;99.90;;;;;;8352800;28;19921;-80
2023/06/04 05:45:54;;;;;;;;;;;18.50;99.90;;;;;;8353289;28;20063;-80
2023/06/04 05:49:54;;;;;;;;;;;19.00;99.90;;;;;;8324520;28;19987;-81
2023/06/04 05:53:55;;;;;;;;;;;19.30;99.90;;;;;;8327423;28;19917;-81
2023/06/04 05:57:55;;;;;;;;;;;19.50;99.90;;;;;;8328222;28;19928;-81
2023/06/04 06:01:56;;;;;;;;;;;20.10;99.90;;;;;;8331863;28;20310;-81
2023/06/04 06:05:59;;;;;;;;;;;20.20;99.90;;;;;;8339192;28;20270;-80
2023/06/04 06:10:00;;;;;;;;;;;20.00;99.90;;;;;;8330904;28;19936;-80
2023/06/04 06:14:01;;;;;;;;;;;19.60;99.90;;;;;;8331017;28;20347;-81
2023/06/04 06:18:01;;;;;;;;;;;19.20;99.90;;;;;;8329816;28;19999;-82
2023/06/04 06:22:03;;;;;;;;;;;19.60;99.90;;;;;;8328142;28;19924;-80
2023/06/04 06:26:07;;;;;;;;;;;19.70;99.90;;;;;;8326384;28;19913;-81
2023/06/04 06:30:08;;;;;;;;;;;19.90;99.90;;;;;;8328326;28;20381;-80
2023/06/04 06:34:09;;;;;;;;;;;19.80;99.90;;;;;;8348422;28;19930;-81
2023/06/04 06:38:09;;;;;;;;;;;20.50;99.90;;;;;;8325151;28;19928;-81
2023/06/04 06:42:10;;;;;;;;;;;21.10;99.90;;;;;;8360775;28;19925;-79
2023/06/04 06:46:10;;;;;;;;;;;20.90;99.90;;;;;;8348354;28;19917;-81
2023/06/04 06:50:11;;;;;;;;;;;20.70;99.90;;;;;;8330669;28;19913;-81
2023/06/04 06:54:14;;;;;;;;;;;20.80;99.90;;;;;;8330019;28;19909;-81
2023/06/04 06:58:15;;;;;;;;;;;20.80;99.90;;;;;;8325944;28;19913;-80
2023/06/04 07:02:15;;;;;;;;;;;21.10;99.90;;;;;;8326645;28;20779;-80
2023/06/04 07:06:16;;;;;;;;;;;21.20;99.90;;;;;;8341738;28;19913;-80
2023/06/04 07:10:16;;;;;;;;;;;21.20;99.90;;;;;;8364189;28;19939;-81
2023/06/04 07:14:17;;;;;;;;;;;21.00;99.90;;;;;;8352171;28;19909;-80
2023/06/04 07:18:17;;;;;;;;;;;21.10;99.90;;;;;;8327051;28;19983;-81
2023/06/04 07:22:18;;;;;;;;;;;21.50;99.90;;;;;;8324421;28;19948;-81
2023/06/04 07:26:18;;;;;;;;;;;21.80;99.90;;;;;;8325465;28;19916;-80
2023/06/04 07:30:19;;;;;;;;;;;22.20;99.90;;;;;;8337552;28;19916;-79
2023/06/04 07:34:20;;;;;;;;;;;22.10;99.90;;;;;;8318500;28;19917;-83
2023/06/04 07:38:20;;;;;;;;;;;22.60;99.90;;;;;;8326778;28;19912;-80
2023/06/04 07:42:20;;;;;;;;;;;22.50;99.90;;;;;;8323909;28;19927;-82
2023/06/04 07:46:21;;;;;;;;;;;22.70;99.90;;;;;;8347275;28;19913;-81
2023/06/04 07:50:24;;;;;;;;;;;22.80;99.90;;;;;;8351998;28;21363;-80
2023/06/04 07:54:24;;;;;;;;;;;22.60;99.90;;;;;;8318800;28;19914;-80
2023/06/04 07:58:25;;;;;;;;;;;22.50;99.90;;;;;;8324450;28;19999;-80
2023/06/04 08:02:26;;;;;;;;;;;22.30;99.90;;;;;;8326800;28;20289;-81
2023/06/04 08:06:26;;;;;;;;;;;22.60;99.90;;;;;;8334606;28;20569;-81
2023/06/04 08:10:26;;;;;;;;;;;22.70;99.90;;;;;;8328152;28;19931;-81
2023/06/04 08:14:27;;;;;;;;;;;23.50;98.70;;;;;;8327834;28;20386;-80
2023/06/04 08:18:27;;;;;;;;;;;23.50;99.90;;;;;;8334246;28;20003;-81
2023/06/04 08:22:29;;;;;;;;;;;23.60;99.90;;;;;;8329033;28;19917;-80
2023/06/04 08:26:30;;;;;;;;;;;23.80;97.80;;;;;;8334455;28;20021;-81
2023/06/04 08:30:30;;;;;;;;;;;23.50;99.90;;;;;;8334228;28;20010;-80
2023/06/04 08:34:31;;;;;;;;;;;23.80;99.90;;;;;;8333013;28;20365;-80
2023/06/04 08:38:31;;;;;;;;;;;23.70;96.80;;;;;;8322491;28;19908;-80
2023/06/04 08:42:37;;;;;;;;;;;23.60;97.40;;;;;;8328867;28;19924;-79
2023/06/04 08:46:39;;;;;;;;;;;23.20;98.40;;;;;;8347748;28;19912;-81
2023/06/04 08:50:42;;;;;;;;;;;23.30;96.50;;;;;;8324750;28;19956;-79
2023/06/04 08:54:42;;;;;;;;;;;23.30;96.40;;;;;;8328087;28;19909;-78
2023/06/04 08:58:43;;;;;;;;;;;23.30;97.00;;;;;;8348998;28;19915;-80
2023/06/04 09:02:44;;;;;;;;;;;23.20;96.10;;;;;;8330626;28;19917;-80
2023/06/04 09:06:45;;;;;;;;;;;23.30;97.20;;;;;;8320531;28;19924;-80
2023/06/04 09:10:49;;;;;;;;;;;23.40;97.50;;;;;;8329667;28;19917;-80
2023/06/04 09:14:52;;;;;;;;;;;23.70;95.90;;;;;;8338438;28;19909;-80
2023/06/04 09:18:53;;;;;;;;;;;23.60;96.40;;;;;;8337738;28;19974;-81
2023/06/04 09:22:53;;;;;;;;;;;23.20;97.00;;;;;;8364306;28;19917;-79
2023/06/04 09:26:54;;;;;;;;;;;23.30;95.90;;;;;;8330380;28;20333;-81
2023/06/04 09:30:54;;;;;;;;;;;23.70;96.10;;;;;;8335778;28;19921;-81
2023/06/04 09:34:56;;;;;;;;;;;24.50;94.20;;;;;;8330372;28;19912;-82
2023/06/04 09:38:57;;;;;;;;;;;24.20;95.50;;;;;;8346864;28;19921;-81
2023/06/04 09:42:57;;;;;;;;;;;23.70;95.70;;;;;;8359020;28;20439;-81
2023/06/04 09:46:58;;;;;;;;;;;23.60;95.70;;;;;;8327321;28;19913;-81
2023/06/04 09:51:06;;;;;;;;;;;24.00;94.70;;;;;;8322945;28;19971;-81
2023/06/04 09:55:20;;;;;;;;;;;24.30;92.00;;;;;;8330244;28;20517;-83
2023/06/04 09:59:20;;;;;;;;;;;24.60;90.80;;;;;;8343194;28;20304;-81
2023/06/04 10:03:25;;;;;;;;;;;25.70;93.50;;;;;;8327940;28;19976;-80
2023/06/04 10:07:26;;;;;;;;;;;25.20;88.80;;;;;;8349840;28;19921;-81
2023/06/04 10:11:30;;;;;;;;;;;24.60;87.70;;;;;;8342851;28;20315;-80
2023/06/04 10:15:32;;;;;;;;;;;25.10;89.20;;;;;;8318441;28;20399;-81
2023/06/04 10:19:33;;;;;;;;;;;26.10;92.10;;;;;;8334841;28;20392;-81
2023/06/04 10:23:35;;;;;;;;;;;26.80;82.40;;;;;;8320339;28;19917;-81
2023/06/04 10:27:36;;;;;;;;;;;26.30;77.40;;;;;;8353931;28;19915;-81
2023/06/04 10:31:37;;;;;;;;;;;26.00;81.00;;;;;;8348022;28;20499;-81
2023/06/04 10:35:37;;;;;;;;;;;26.50;84.00;;;;;;8339360;28;19949;-82
2023/06/04 10:39:37;;;;;;;;;;;27.40;80.40;;;;;;8335291;28;19915;-82
2023/06/04 10:43:38;;;;;;;;;;;26.70;77.00;;;;;;8348426;28;19913;-81
2023/06/04 10:47:40;;;;;;;;;;;26.10;80.60;;;;;;8335647;28;19909;-81
2023/06/04 10:51:41;;;;;;;;;;;27.80;76.20;;;;;;8326011;28;19932;-81
2023/06/04 10:55:46;;;;;;;;;;;29.40;77.00;;;;;;8330900;28;20374;-81
2023/06/04 10:59:56;;;;;;;;;;;29.70;69.80;;;;;;8340048;28;19971;-81
2023/06/04 11:03:56;;;;;;;;;;;29.20;67.60;;;;;;8338936;28;20018;-80
2023/06/04 11:07:57;;;;;;;;;;;27.60;74.60;;;;;;8345736;28;19924;-81
2023/06/04 11:11:58;;;;;;;;;;;27.60;71.20;;;;;;8353502;28;19963;-81
2023/06/04 11:15:59;;;;;;;;;;;28.80;68.40;;;;;;8340048;28;19912;-81
2023/06/04 11:20:00;;;;;;;;;;;27.40;72.70;;;;;;8339856;28;20421;-81
2023/06/04 11:24:00;;;;;;;;;;;25.70;75.20;;;;;;8321291;28;20602;-81
2023/06/04 11:28:01;;;;;;;;;;;24.30;77.70;;;;;;8328345;28;19913;-80
2023/06/04 11:32:02;;;;;;;;;;;23.80;79.40;;;;;;8323413;28;19916;-79
2023/06/04 11:36:02;;;;;;;;;;;24.40;73.40;;;;;;8338389;28;19913;-80
2023/06/04 11:40:06;;;;;;;;;;;23.80;85.10;;;;;;8323430;28;20312;-81
2023/06/04 11:44:06;;;;;;;;;;;26.50;74.10;;;;;;8345955;28;19932;-81
2023/06/04 11:48:10;;;;;;;;;;;28.50;68.90;;;;;;8337898;28;19913;-80
2023/06/04 11:52:11;;;;;;;;;;;29.50;62.00;;;;;;8326717;28;19917;-80
2023/06/04 11:56:11;;;;;;;;;;;29.40;57.70;;;;;;8326616;28;19913;-80
2023/06/04 12:00:12;;;;;;;;;;;29.90;55.60;;;;;;8331053;28;19909;-81
2023/06/04 12:04:13;;;;;;;;;;;29.60;56.60;;;;;;8328037;28;19913;-80
2023/06/04 12:08:14;;;;;;;;;;;29.00;57.50;;;;;;8336082;28;19917;-79
2023/06/04 12:12:15;;;;;;;;;;;27.20;62.40;;;;;;8333602;28;19921;-79
2023/06/04 12:16:16;;;;;;;;;;;27.80;59.30;;;;;;8326545;28;19958;-81
2023/06/04 12:20:17;;;;;;;;;;;28.40;58.20;;;;;;8319759;28;19909;-81
2023/06/04 12:24:17;;;;;;;;;;;30.20;57.50;;;;;;8321838;28;20006;-81
2023/06/04 12:28:18;;;;;;;;;;;27.50;60.60;;;;;;8322369;28;19932;-81
2023/06/04 12:32:18;;;;;;;;;;;25.10;66.20;;;;;;8335602;28;19948;-81
2023/06/04 12:36:19;;;;;;;;;;;24.20;64.50;;;;;;8313292;28;19923;-81
2023/06/04 12:40:20;;;;;;;;;;;23.80;69.70;;;;;;8332522;28;19916;-81
2023/06/04 12:44:21;;;;;;;;;;;24.20;68.60;;;;;;8324298;28;19961;-80
2023/06/04 12:48:21;;;;;;;;;;;24.50;66.90;;;;;;8354193;28;19920;-81
2023/06/04 12:52:21;;;;;;;;;;;24.40;62.80;;;;;;8328133;28;20308;-80
2023/06/04 12:56:22;;;;;;;;;;;24.70;71.80;;;;;;8321050;28;19913;-79
2023/06/04 13:00:22;;;;;;;;;;;25.80;63.80;;;;;;8333095;28;20297;-79
2023/06/04 13:04:23;;;;;;;;;;;26.50;64.20;;;;;;8333627;28;19921;-80
2023/06/04 13:08:24;;;;;;;;;;;28.50;55.80;;;;;;8321328;28;19917;-81
2023/06/04 13:12:24;;;;;;;;;;;31.80;57.40;;;;;;8336982;28;19909;-81
2023/06/04 13:16:25;;;;;;;;;;;33.10;50.10;;;;;;8343818;28;19971;-80
2023/06/04 13:20:25;;;;;;;;;;;32.60;49.00;;;;;;8334288;28;20389;-81
2023/06/04 13:24:26;;;;;;;;;;;32.00;50.00;;;;;;8341424;28;19956;-81
2023/06/04 13:28:26;;;;;;;;;;;31.10;51.90;;;;;;8328301;28;19909;-80
2023/06/04 13:32:27;;;;;;;;;;;30.40;50.70;;;;;;8352003;28;20045;-81
2023/06/04 13:36:27;;;;;;;;;;;31.90;50.00;;;;;;8358359;28;19920;-81
2023/06/04 13:40:28;;;;;;;;;;;33.10;53.40;;;;;;8335887;28;20023;-82
2023/06/04 13:44:28;;;;;;;;;;;32.30;50.70;;;;;;8340202;28;20298;-81
2023/06/04 13:48:29;;;;;;;;;;;29.70;52.40;;;;;;8347599;28;19912;-81
2023/06/04 13:52:29;;;;;;;;;;;27.60;56.90;;;;;;8328851;28;19913;-80
2023/06/04 13:56:30;;;;;;;;;;;26.00;58.90;;;;;;8325421;28;19979;-80
2023/06/04 14:00:31;;;;;;;;;;;25.00;62.90;;;;;;8335433;28;19925;-80
2023/06/04 14:04:31;;;;;;;;;;;24.60;64.90;;;;;;8343251;28;20496;-80
2023/06/04 14:08:32;;;;;;;;;;;24.40;62.90;;;;;;8322102;28;19924;-80
2023/06/04 14:12:32;;;;;;;;;;;25.50;62.30;;;;;;8346191;28;19909;-81
2023/06/04 14:16:33;;;;;;;;;;;27.60;62.50;;;;;;8330308;28;19917;-78
2023/06/04 14:20:34;;;;;;;;;;;28.80;56.70;;;;;;8314643;28;19910;-79
2023/06/04 14:24:34;;;;;;;;;;;28.60;55.80;;;;;;8334528;28;19920;-80
2023/06/04 14:28:35;;;;;;;;;;;28.20;55.00;;;;;;8327981;28;20416;-80
2023/06/04 14:32:36;;;;;;;;;;;26.00;58.70;;;;;;8336327;28;19948;-80
2023/06/04 14:36:36;;;;;;;;;;;25.10;62.60;;;;;;8315152;28;19917;-81
2023/06/04 14:40:37;;;;;;;;;;;25.10;64.20;;;;;;8343747;28;19909;-81
2023/06/04 14:44:38;;;;;;;;;;;27.90;59.70;;;;;;8317166;28;20008;-81
2023/06/04 14:48:39;;;;;;;;;;;27.90;56.10;;;;;;8326129;28;19916;-81
2023/06/04 14:52:39;;;;;;;;;;;26.00;60.90;;;;;;8323299;28;19919;-81
2023/06/04 14:56:39;;;;;;;;;;;24.60;65.20;;;;;;8327620;28;19928;-81
2023/06/04 15:00:41;;;;;;;;;;;24.00;65.30;;;;;;8350567;28;19916;-80
2023/06/04 15:04:44;;;;;;;;;;;23.90;64.80;;;;;;8337889;28;19962;-81
2023/06/04 15:08:44;;;;;;;;;;;23.60;65.20;;;;;;8331528;28;19921;-81
2023/06/04 15:12:45;;;;;;;;;;;23.40;68.30;;;;;;8325453;28;19955;-81
2023/06/04 15:16:45;;;;;;;;;;;23.20;70.30;;;;;;8352986;28;19964;-81
2023/06/04 15:20:46;;;;;;;;;;;23.00;67.90;;;;;;8332815;28;20353;-80
2023/06/04 15:24:46;;;;;;;;;;;23.60;68.10;;;;;;8346410;28;19974;-81
2023/06/04 15:28:47;;;;;;;;;;;26.80;61.40;;;;;;8328159;28;19928;-82
2023/06/04 15:32:47;;;;;;;;;;;29.30;59.50;;;;;;8351028;28;20215;-81
2023/06/04 15:36:48;;;;;;;;;;;29.60;54.90;;;;;;8352157;28;19908;-81
2023/06/04 15:40:48;;;;;;;;;;;28.70;57.00;;;;;;8340524;28;20387;-80
2023/06/04 15:44:48;;;;;;;;;;;27.70;54.90;;;;;;8323078;28;20003;-81
2023/06/04 15:48:49;;;;;;;;;;;25.90;60.40;;;;;;8350511;28;19913;-80
2023/06/04 15:52:50;;;;;;;;;;;25.00;62.30;;;;;;8335228;28;19909;-80
2023/06/04 15:56:50;;;;;;;;;;;24.50;62.60;;;;;;8327520;28;20539;-80
2023/06/04 16:00:51;;;;;;;;;;;24.40;64.70;;;;;;8331071;28;19909;-80
2023/06/04 16:04:52;;;;;;;;;;;24.50;66.30;;;;;;8332130;28;19937;-78
2023/06/04 16:08:52;;;;;;;;;;;24.10;66.30;;;;;;8330026;28;19948;-81
2023/06/04 16:12:52;;;;;;;;;;;23.30;64.90;;;;;;8331541;28;20000;-80
2023/06/04 16:16:53;;;;;;;;;;;22.80;68.50;;;;;;8342762;28;19919;-82
2023/06/04 16:20:54;;;;;;;;;;;22.70;69.80;;;;;;8341121;28;20691;-82
2023/06/04 16:24:55;;;;;;;;;;;22.80;68.40;;;;;;8354565;28;19912;-82
2023/06/04 16:28:55;;;;;;;;;;;23.10;66.70;;;;;;8330802;28;19913;-80
2023/06/04 16:32:56;;;;;;;;;;;23.50;65.80;;;;;;8343820;28;19948;-81
2023/06/04 16:36:56;;;;;;;;;;;23.70;69.70;;;;;;8323585;28;19921;-81
2023/06/04 16:40:57;;;;;;;;;;;23.40;66.90;;;;;;8342957;28;20013;-81
2023/06/04 16:44:58;;;;;;;;;;;23.10;74.00;;;;;;8318606;28;19921;-79
2023/06/04 16:48:58;;;;;;;;;;;22.50;70.10;;;;;;8326267;28;19923;-78
2023/06/04 16:52:59;;;;;;;;;;;22.20;72.00;;;;;;8319575;28;20443;-78
2023/06/04 16:57:01;;;;;;;;;;;21.90;74.50;;;;;;8340175;28;19957;-80
2023/06/04 17:01:02;;;;;;;;;;;21.70;77.80;;;;;;8320393;28;19917;-81
2023/06/04 17:05:02;;;;;;;;;;;21.80;79.50;;;;;;8324783;28;19923;-79
2023/06/04 17:09:03;;;;;;;;;;;21.90;75.70;;;;;;8323466;28;19992;-79
2023/06/04 17:13:03;;;;;;;;;;;22.00;75.30;;;;;;8318492;28;19924;-81
2023/06/04 17:17:04;;;;;;;;;;;22.00;79.40;;;;;;8328666;28;19925;-80
2023/06/04 17:21:04;;;;;;;;;;;21.90;76.30;;;;;;8325193;28;19913;-80
2023/06/04 17:25:05;;;;;;;;;;;21.70;79.80;;;;;;8337259;28;20010;-79
2023/06/04 17:29:06;;;;;;;;;;;21.50;74.70;;;;;;8315035;28;20408;-80
2023/06/04 17:33:07;;;;;;;;;;;21.40;74.80;;;;;;8325903;28;19913;-79
2023/06/04 17:37:08;;;;;;;;;;;21.40;75.90;;;;;;8332209;28;19955;-80
2023/06/04 17:41:09;;;;;;;;;;;21.30;76.50;;;;;;8354706;28;20428;-80
2023/06/04 17:45:10;;;;;;;;;;;21.10;76.70;;;;;;8323859;28;19924;-80
2023/06/04 17:49:12;;;;;;;;;;;21.00;75.80;;;;;;8346824;28;20355;-80
2023/06/04 17:53:13;;;;;;;;;;;20.90;76.90;;;;;;8326404;28;20427;-79
2023/06/04 17:57:13;;;;;;;;;;;21.20;74.60;;;;;;8354587;28;19921;-80
2023/06/04 18:01:14;;;;;;;;;;;21.20;76.70;;;;;;8344717;28;19917;-81
2023/06/04 18:05:14;;;;;;;;;;;21.30;76.00;;;;;;8335817;28;19917;-78
2023/06/04 18:09:15;;;;;;;;;;;21.10;75.80;;;;;;8348398;28;19964;-80
2023/06/04 18:13:17;;;;;;;;;;;20.90;78.60;;;;;;8348212;28;19909;-80
2023/06/04 18:17:17;;;;;;;;;;;20.40;81.20;;;;;;8337089;28;19963;-79
2023/06/04 18:21:18;;;;;;;;;;;20.10;81.00;;;;;;8316878;28;20020;-80
2023/06/04 18:25:18;;;;;;;;;;;19.70;83.10;;;;;;8320488;28;19959;-80
2023/06/04 18:29:19;;;;;;;;;;;19.70;85.30;;;;;;8324967;28;19909;-79
2023/06/04 18:33:24;;;;;;;;;;;19.40;85.20;;;;;;8327666;28;19917;-80
2023/06/04 18:37:24;;;;;;;;;;;19.10;86.20;;;;;;8328519;28;19985;-79
2023/06/04 18:41:25;;;;;;;;;;;19.00;86.50;;;;;;8339477;28;19919;-80
2023/06/04 18:45:25;;;;;;;;;;;18.40;88.70;;;;;;8345448;28;19916;-79
2023/06/04 18:49:26;;;;;;;;;;;18.00;90.40;;;;;;8347851;28;19913;-79
2023/06/04 18:53:26;;;;;;;;;;;17.80;93.20;;;;;;8330295;28;19916;-80
2023/06/04 18:57:27;;;;;;;;;;;17.40;94.70;;;;;;8322694;28;19917;-79
2023/06/04 19:01:27;;;;;;;;;;;17.00;96.70;;;;;;8317222;28;19992;-79
2023/06/04 19:05:28;;;;;;;;;;;16.80;97.20;;;;;;8333031;28;20305;-79
2023/06/04 19:09:28;;;;;;;;;;;16.60;98.50;;;;;;8357241;28;20376;-80
2023/06/04 19:13:29;;;;;;;;;;;16.30;99.20;;;;;;8313110;28;20436;-79
2023/06/04 19:17:30;;;;;;;;;;;15.90;99.90;;;;;;8344648;28;20377;-79
2023/06/04 19:21:30;;;;;;;;;;;15.60;99.90;;;;;;8329501;28;19948;-79
2023/06/04 19:25:31;;;;;;;;;;;15.40;99.90;;;;;;8345919;28;19944;-79
2023/06/04 19:29:32;;;;;;;;;;;15.10;99.90;;;;;;8342265;28;20406;-80
2023/06/04 19:33:33;;;;;;;;;;;14.80;99.90;;;;;;8334931;28;19913;-80
2023/06/04 19:37:34;;;;;;;;;;;14.60;99.90;;;;;;8330194;28;19909;-79
2023/06/04 19:41:34;;;;;;;;;;;14.50;99.90;;;;;;8337056;28;19916;-79
2023/06/04 19:45:35;;;;;;;;;;;14.40;99.90;;;;;;8319774;28;19924;-79
2023/06/04 19:49:35;;;;;;;;;;;14.20;99.90;;;;;;8309269;28;20476;-79
2023/06/04 19:53:36;;;;;;;;;;;14.10;99.90;;;;;;8338462;28;19916;-79
2023/06/04 19:57:36;;;;;;;;;;;14.00;99.90;;;;;;8325795;28;19909;-79
2023/06/04 20:01:37;;;;;;;;;;;13.80;99.90;;;;;;8328476;28;19913;-78
2023/06/04 20:05:37;;;;;;;;;;;13.70;99.90;;;;;;8323010;28;20388;-78
2023/06/04 20:09:38;;;;;;;;;;;13.50;99.90;;;;;;8321378;28;19920;-79
2023/06/04 20:13:38;;;;;;;;;;;13.50;99.90;;;;;;8343155;28;20018;-79
2023/06/04 20:17:39;;;;;;;;;;;13.40;99.90;;;;;;8329166;28;19946;-80
2023/06/04 20:21:39;;;;;;;;;;;13.20;99.90;;;;;;8331577;28;19912;-84
2023/06/04 20:25:40;;;;;;;;;;;13.00;99.90;;;;;;8325382;28;19912;-80
2023/06/04 20:29:40;;;;;;;;;;;12.80;99.90;;;;;;8332068;28;19913;-80
2023/06/04 20:33:40;;;;;;;;;;;12.60;99.90;;;;;;8331292;28;19999;-80
2023/06/04 20:37:41;;;;;;;;;;;12.70;99.90;;;;;;8332961;28;19928;-80
2023/06/04 20:41:41;;;;;;;;;;;12.70;99.90;;;;;;8341394;28;19913;-80
2023/06/04 20:45:42;;;;;;;;;;;12.60;99.90;;;;;;8312291;28;19928;-79
2023/06/04 20:49:42;;;;;;;;;;;12.60;99.90;;;;;;8324200;28;20297;-79
2023/06/04 20:53:44;;;;;;;;;;;12.80;99.90;;;;;;8324400;28;20341;-80
2023/06/04 20:57:44;;;;;;;;;;;12.60;99.90;;;;;;8316622;28;20417;-79
2023/06/04 21:01:45;;;;;;;;;;;12.40;99.90;;;;;;8349753;28;20000;-81
2023/06/04 21:05:45;;;;;;;;;;;12.20;99.90;;;;;;8338872;28;19995;-81
2023/06/04 21:09:45;;;;;;;;;;;12.20;99.90;;;;;;8323378;28;19959;-80
2023/06/04 21:13:46;;;;;;;;;;;12.50;99.90;;;;;;8332276;28;20010;-79
2023/06/04 21:17:46;;;;;;;;;;;12.50;99.90;;;;;;8340506;28;19931;-79
2023/06/04 21:21:47;;;;;;;;;;;12.30;99.90;;;;;;8358460;28;19913;-80
2023/06/04 21:25:47;;;;;;;;;;;12.10;99.90;;;;;;8342257;28;19931;-79
2023/06/04 21:29:48;;;;;;;;;;;11.80;99.90;;;;;;8354142;28;19921;-80
2023/06/04 21:33:48;;;;;;;;;;;11.70;99.90;;;;;;8334244;28;19920;-79
2023/06/04 21:37:49;;;;;;;;;;;11.40;99.90;;;;;;8332435;28;19935;-79
2023/06/04 21:41:49;;;;;;;;;;;11.20;99.90;;;;;;8327067;28;19913;-79
2023/06/04 21:45:50;;;;;;;;;;;11.10;99.90;;;;;;8323348;28;20035;-80
2023/06/04 21:49:50;;;;;;;;;;;11.00;99.90;;;;;;8325373;28;19909;-78
2023/06/04 21:53:50;;;;;;;;;;;11.10;99.90;;;;;;8333005;28;19924;-80
2023/06/04 21:57:51;;;;;;;;;;;11.20;99.90;;;;;;8336467;28;19920;-79
2023/06/04 22:01:51;;;;;;;;;;;11.00;99.90;;;;;;8348672;28;20008;-80
2023/06/04 22:05:52;;;;;;;;;;;10.90;99.90;;;;;;8339879;28;19921;-79
2023/06/04 22:09:52;;;;;;;;;;;10.80;99.90;;;;;;8325202;28;20317;-79
2023/06/04 22:13:53;;;;;;;;;;;10.70;99.90;;;;;;8318476;28;19999;-80
2023/06/04 22:17:53;;;;;;;;;;;10.80;99.90;;;;;;8340931;28;19917;-79
2023/06/04 22:21:54;;;;;;;;;;;11.00;99.90;;;;;;8342058;28;19940;-80
2023/06/04 22:25:55;;;;;;;;;;;10.90;99.90;;;;;;8335451;28;19967;-79
2023/06/04 22:29:55;;;;;;;;;;;10.80;99.90;;;;;;8327959;28;19909;-78
2023/06/04 22:33:56;;;;;;;;;;;10.70;99.90;;;;;;8328045;28;19909;-80
2023/06/04 22:37:56;;;;;;;;;;;10.50;99.90;;;;;;8320845;28;19913;-80
2023/06/04 22:41:57;;;;;;;;;;;11.00;99.90;;;;;;8329093;28;19970;-80
2023/06/04 22:45:57;;;;;;;;;;;10.90;99.90;;;;;;8336396;28;19936;-80
2023/06/04 22:49:58;;;;;;;;;;;10.90;99.90;;;;;;8333196;28;20349;-78
2023/06/04 22:54:00;;;;;;;;;;;11.10;99.90;;;;;;8326896;28;20402;-80
2023/06/04 22:58:01;;;;;;;;;;;11.10;99.90;;;;;;8356160;28;20426;-79
2023/06/04 23:02:01;;;;;;;;;;;11.00;99.90;;;;;;8355974;28;19917;-78
2023/06/04 23:06:02;;;;;;;;;;;10.90;99.90;;;;;;8350226;28;19963;-79
2023/06/04 23:10:04;;;;;;;;;;;10.70;99.90;;;;;;8345610;28;19917;-80
2023/06/04 23:14:05;;;;;;;;;;;10.60;99.90;;;;;;8322922;28;19913;-80
2023/06/04 23:22:16;;;;;;;;;;;10.20;99.90;;;;;;4800271;26;20024;-79
2023/06/04 23:26:16;;;;;;;;;;;10.20;99.90;;;;;;8453079;27;19957;-78
2023/06/04 23:30:20;;;;;;;;;;;9.90;99.90;;;;;;8417928;28;20547;-78